createdAt,value
2019-02-08T00:02:40.647Z,98246.24
2019-02-08T00:05:27.972Z,98245.27
2019-02-08T00:08:15.699Z,98234.77
2019-02-08T00:11:02.814Z,98243.20
2019-02-08T00:13:50.345Z,98235.86
2019-02-08T00:16:37.767Z,98235.50
2019-02-08T00:19:25.805Z,98230.66
2019-02-08T00:22:13.546Z,98215.00
2019-02-08T00:25:01.290Z,98221.02
2019-02-08T00:27:49.099Z,98217.40
2019-02-08T00:30:37.244Z,98215.36
2019-02-08T00:33:24.868Z,98219.22
2019-02-08T00:36:11.985Z,98225.18
2019-02-08T00:38:59.726Z,98221.70
2019-02-08T00:41:47.761Z,98209.90
2019-02-08T00:44:34.874Z,98209.66
2019-02-08T00:47:22.607Z,98218.44
2019-02-08T00:50:19.471Z,98222.91
2019-02-08T00:53:06.462Z,98229.55
2019-02-08T00:55:54.192Z,98235.56
2019-02-08T00:58:41.514Z,98246.52
2019-02-08T01:01:29.451Z,98236.94
2019-02-08T01:04:17.182Z,98247.87
2019-02-08T01:07:05.119Z,98248.77
2019-02-08T01:09:53.263Z,98256.32
2019-02-08T01:12:40.696Z,98256.30
2019-02-08T01:15:30.568Z,98253.36
2019-02-08T01:18:17.986Z,98259.08
2019-02-08T01:21:05.722Z,98263.85
2019-02-08T01:23:52.835Z,98263.41
2019-02-08T01:26:40.263Z,98257.27
2019-02-08T01:29:27.793Z,98258.86
2019-02-08T01:32:15.108Z,98262.12
2019-02-08T01:35:02.941Z,98260.94
2019-02-08T01:37:51.025Z,98265.72
2019-02-08T01:40:39.440Z,98269.09
2019-02-08T01:43:27.062Z,98271.59
2019-02-08T01:46:15.401Z,98266.85
2019-02-08T01:49:02.825Z,98270.07
2019-02-08T01:51:50.251Z,98272.02
2019-02-08T01:54:37.571Z,98278.48
2019-02-08T01:57:24.790Z,98283.95
2019-02-08T02:00:21.022Z,98286.65
2019-02-08T02:03:10.129Z,98288.79
2019-02-08T02:05:57.509Z,98298.22
2019-02-08T02:08:45.141Z,98284.23
2019-02-08T02:11:33.909Z,98285.39
2019-02-08T02:14:21.314Z,98285.13
2019-02-08T02:17:08.638Z,98278.73
2019-02-08T02:19:56.043Z,98283.64
2019-02-08T02:22:43.383Z,98285.41
2019-02-08T02:25:31.015Z,98284.38
2019-02-08T02:28:18.638Z,98282.21
2019-02-08T02:31:06.301Z,98280.47
2019-02-08T02:33:53.593Z,98286.42
2019-02-08T02:36:41.597Z,98278.11
2019-02-08T02:39:28.949Z,98280.42
2019-02-08T02:42:16.581Z,98284.39
2019-02-08T02:45:05.747Z,98286.92
2019-02-08T02:47:53.065Z,98287.24
2019-02-08T02:50:40.491Z,98292.23
2019-02-08T02:53:27.915Z,98289.03
2019-02-08T02:56:15.340Z,98289.38
2019-02-08T02:59:02.455Z,98282.47
2019-02-08T03:01:50.190Z,98283.14
2019-02-08T03:04:37.813Z,98289.44
2019-02-08T03:07:25.647Z,98282.59
2019-02-08T03:10:21.869Z,98282.22
2019-02-08T03:13:09.729Z,98285.05
2019-02-08T03:15:57.243Z,98268.33
2019-02-08T03:18:44.873Z,98269.81
2019-02-08T03:21:32.290Z,98273.40
2019-02-08T03:24:19.816Z,98271.11
2019-02-08T03:27:07.241Z,98268.49
2019-02-08T03:29:54.667Z,98271.70
2019-02-08T03:32:42.044Z,98267.09
2019-02-08T03:35:30.029Z,98262.81
2019-02-08T03:38:17.452Z,98269.41
2019-02-08T03:41:04.778Z,98263.55
2019-02-08T03:43:52.095Z,98262.17
2019-02-08T03:46:40.395Z,98265.38
2019-02-08T03:49:27.761Z,98262.54
2019-02-08T03:52:15.186Z,98270.17
2019-02-08T03:55:02.814Z,98270.63
2019-02-08T03:57:50.239Z,98265.48
2019-02-08T04:00:39.914Z,98270.89
2019-02-08T04:03:27.588Z,98271.09
2019-02-08T04:06:15.170Z,98275.05
2019-02-08T04:09:02.597Z,98275.50
2019-02-08T04:11:50.326Z,98263.88
2019-02-08T04:14:37.340Z,98260.56
2019-02-08T04:17:24.970Z,98270.41
2019-02-08T04:20:14.820Z,98277.82
2019-02-08T04:23:02.377Z,98276.75
2019-02-08T04:25:49.697Z,98280.91
2019-02-08T04:28:37.529Z,98283.27
2019-02-08T04:31:25.165Z,98274.28
2019-02-08T04:34:12.388Z,98271.35
2019-02-08T04:36:59.818Z,98284.28
2019-02-08T04:39:47.230Z,98280.03
2019-02-08T04:42:34.755Z,98287.38
2019-02-08T04:45:22.592Z,98291.45
2019-02-08T04:48:10.018Z,98292.22
2019-02-08T04:50:57.641Z,98295.79
2019-02-08T04:53:45.371Z,98289.38
2019-02-08T04:56:32.590Z,98299.70
2019-02-08T04:59:20.122Z,98292.16
2019-02-08T05:02:07.848Z,98282.78
2019-02-08T05:04:54.967Z,98283.03
2019-02-08T05:07:42.698Z,98288.61
2019-02-08T05:10:32.667Z,98287.53
2019-02-08T05:13:19.798Z,98297.04
2019-02-08T05:16:07.530Z,98288.25
2019-02-08T05:18:54.645Z,98290.57
2019-02-08T05:21:41.661Z,98279.18
2019-02-08T05:24:29.188Z,98285.00
2019-02-08T05:27:16.303Z,98289.78
2019-02-08T05:30:16.191Z,98291.18
2019-02-08T05:33:03.650Z,98290.16
2019-02-08T05:35:51.344Z,98288.08
2019-02-08T05:38:38.699Z,98289.31
2019-02-08T05:41:27.351Z,98288.54
2019-02-08T05:44:14.878Z,98293.94
2019-02-08T05:47:02.374Z,98293.42
2019-02-08T05:49:50.133Z,98285.48
2019-02-08T05:52:37.765Z,98286.47
2019-02-08T05:55:27.602Z,98288.95
2019-02-08T05:58:14.965Z,98286.55
2019-02-08T06:01:02.288Z,98288.73
2019-02-08T06:03:49.712Z,98291.44
2019-02-08T06:06:37.136Z,98282.64
2019-02-08T06:09:24.561Z,98282.68
2019-02-08T06:12:11.884Z,98282.39
2019-02-08T06:14:58.997Z,98284.70
2019-02-08T06:17:46.319Z,98289.85
2019-02-08T06:20:33.847Z,98291.04
2019-02-08T06:23:20.962Z,98298.03
2019-02-08T06:26:08.388Z,98290.17
2019-02-08T06:28:56.015Z,98298.05
2019-02-08T06:31:43.439Z,98304.72
2019-02-08T06:34:30.760Z,98302.59
2019-02-08T06:37:17.881Z,98305.56
2019-02-08T06:40:23.636Z,98299.64
2019-02-08T06:43:10.954Z,98302.28
2019-02-08T06:45:58.482Z,98297.46
2019-02-08T06:48:46.212Z,98299.77
2019-02-08T06:51:33.640Z,98295.52
2019-02-08T06:54:21.266Z,98310.08
2019-02-08T06:57:10.018Z,98303.31
2019-02-08T06:59:59.188Z,98305.38
2019-02-08T07:02:57.769Z,98310.47
2019-02-08T07:05:46.528Z,98315.41
2019-02-08T07:08:41.733Z,98302.64
2019-02-08T07:11:39.703Z,98319.39
2019-02-08T07:14:46.686Z,98311.41
2019-02-08T07:17:36.065Z,98314.09
2019-02-08T07:20:27.881Z,98314.19
2019-02-08T07:23:16.972Z,98319.97
2019-02-08T07:26:09.695Z,98317.16
2019-02-08T07:28:58.553Z,98316.68
2019-02-08T07:31:53.243Z,98313.74
2019-02-08T07:34:45.494Z,98311.03
2019-02-08T07:37:37.411Z,98315.76
2019-02-08T07:40:29.238Z,98321.72
2019-02-08T07:43:18.606Z,98323.96
2019-02-08T07:46:13.185Z,98332.94
2019-02-08T07:49:02.363Z,98320.05
2019-02-08T07:52:06.686Z,98322.48
2019-02-08T07:54:55.795Z,98336.62
2019-02-08T07:57:54.101Z,98337.30
2019-02-08T08:00:46.276Z,98330.30
2019-02-08T08:03:35.228Z,98339.14
2019-02-08T08:06:30.223Z,98341.11
2019-02-08T08:09:25.338Z,98340.39
2019-02-08T08:12:15.126Z,98345.70
2019-02-08T08:15:13.182Z,98343.05
2019-02-08T08:18:18.237Z,98340.52
2019-02-08T08:21:24.384Z,98340.89
2019-02-08T08:24:19.692Z,98333.45
2019-02-08T08:27:23.914Z,98335.00
2019-02-08T08:30:21.675Z,98337.39
2019-02-08T08:33:13.910Z,98330.02
2019-02-08T08:36:22.667Z,98336.05
2019-02-08T08:39:29.615Z,98338.95
2019-02-08T08:42:41.003Z,98331.04
2019-02-08T08:45:43.375Z,98337.05
2019-02-08T08:49:01.520Z,98331.67
2019-02-08T08:51:51.811Z,98335.98
2019-02-08T08:55:15.894Z,98335.23
2019-02-08T08:58:22.156Z,98326.27
2019-02-08T09:01:35.287Z,98327.58
2019-02-08T09:04:44.127Z,98322.68
2019-02-08T09:07:57.341Z,98320.66
2019-02-08T09:11:17.635Z,98330.30
2019-02-08T09:14:29.355Z,98319.28
2019-02-08T09:17:44.399Z,98323.50
2019-02-08T09:20:40.696Z,98324.47
2019-02-08T09:23:47.866Z,98330.74
2019-02-08T09:27:02.484Z,98324.70
2019-02-08T09:30:08.335Z,98322.06
2019-02-08T09:33:17.059Z,98320.07
2019-02-08T09:36:27.937Z,98317.27
2019-02-08T09:39:23.960Z,98318.70
2019-02-08T09:42:47.736Z,98310.27
2019-02-08T09:45:53.289Z,98311.81
2019-02-08T09:49:20.132Z,98310.13
2019-02-08T09:52:24.866Z,98303.81
2019-02-08T09:55:17.914Z,98305.42
2019-02-08T09:58:14.350Z,98305.69
2019-02-08T10:01:22.153Z,98312.69
2019-02-08T10:04:21.867Z,98308.86
2019-02-08T10:07:18.506Z,98307.43
2019-02-08T10:10:29.889Z,98314.38
2019-02-08T10:13:46.299Z,98315.36
2019-02-08T10:16:53.691Z,98308.90
2019-02-08T10:20:09.886Z,98298.73
2019-02-08T10:23:06.423Z,98305.39
2019-02-08T10:26:06.240Z,98301.82
2019-02-08T10:29:26.222Z,98301.98
2019-02-08T10:32:42.728Z,98294.08
2019-02-08T10:35:52.584Z,98299.89
2019-02-08T10:39:08.674Z,98296.63
2019-02-08T10:42:14.435Z,98287.71
2019-02-08T10:45:20.286Z,98289.76
2019-02-08T10:48:25.014Z,98283.55
2019-02-08T10:51:30.768Z,98280.08
2019-02-08T10:54:40.926Z,98278.32
2019-02-08T10:58:04.818Z,98270.39
2019-02-08T11:01:27.659Z,98270.10
2019-02-08T11:04:23.892Z,98270.16
2019-02-08T11:07:40.092Z,98266.33
2019-02-08T11:10:30.777Z,98268.13
2019-02-08T11:13:24.463Z,98265.77
2019-02-08T11:16:23.661Z,98270.97
2019-02-08T11:19:16.612Z,98264.36
2019-02-08T11:22:04.249Z,98261.78
2019-02-08T11:24:51.871Z,98259.34
2019-02-08T11:27:39.293Z,98248.55
2019-02-08T11:30:27.026Z,98257.86
2019-02-08T11:33:14.447Z,98246.27
2019-02-08T11:36:03.510Z,98237.28
2019-02-08T11:38:50.425Z,98248.41
2019-02-08T11:41:37.850Z,98232.54
2019-02-08T11:44:25.789Z,98228.59
2019-02-08T11:47:12.905Z,98217.05
2019-02-08T11:50:00.430Z,98216.94
2019-02-08T11:52:47.747Z,98205.30
2019-02-08T11:55:35.684Z,98202.19
2019-02-08T11:58:22.700Z,98209.08
2019-02-08T12:01:09.916Z,98212.67
2019-02-08T12:03:57.342Z,98208.28
2019-02-08T12:06:44.870Z,98202.46
2019-02-08T12:09:32.602Z,98194.94
2019-02-08T12:12:19.924Z,98196.22
2019-02-08T12:15:10.836Z,98193.20
2019-02-08T12:17:58.359Z,98183.69
2019-02-08T12:20:45.880Z,98182.03
2019-02-08T12:23:33.205Z,98165.95
2019-02-08T12:26:20.524Z,98164.16
2019-02-08T12:29:08.667Z,98162.20
2019-02-08T12:31:55.883Z,98158.37
2019-02-08T12:34:43.103Z,98162.50
2019-02-08T12:37:31.144Z,98151.16
2019-02-08T12:40:18.872Z,98154.66
2019-02-08T12:43:06.912Z,98154.40
2019-02-08T12:45:53.823Z,98153.53
2019-02-08T12:48:41.145Z,98157.84
2019-02-08T12:51:28.774Z,98143.47
2019-02-08T12:54:16.102Z,98141.14
2019-02-08T12:57:03.218Z,98134.26
2019-02-08T12:59:50.845Z,98134.36
2019-02-08T13:02:38.578Z,98130.58
2019-02-08T13:05:26.609Z,98118.83
2019-02-08T13:08:14.034Z,98116.15
2019-02-08T13:11:01.460Z,98125.52
2019-02-08T13:13:49.204Z,98119.02
2019-02-08T13:16:36.819Z,98125.72
2019-02-08T13:19:24.448Z,98115.63
2019-02-08T13:22:12.079Z,98117.56
2019-02-08T13:24:59.707Z,98113.59
2019-02-08T13:27:48.499Z,98102.66
2019-02-08T13:30:36.679Z,98108.68
2019-02-08T13:33:24.028Z,98114.56
2019-02-08T13:36:13.043Z,98115.30
2019-02-08T13:39:00.616Z,98114.96
2019-02-08T13:41:47.730Z,98108.00
2019-02-08T13:44:35.368Z,98101.16
2019-02-08T13:47:22.993Z,98102.17
2019-02-08T13:50:19.734Z,98096.30
2019-02-08T13:53:07.464Z,98096.27
2019-02-08T13:55:55.091Z,98094.34
2019-02-08T13:58:43.546Z,98094.59
2019-02-08T14:01:31.376Z,98102.34
2019-02-08T14:04:19.104Z,98097.21
2019-02-08T14:07:06.326Z,98096.25
2019-02-08T14:09:53.852Z,98085.73
2019-02-08T14:12:41.582Z,98091.30
2019-02-08T14:15:29.546Z,98090.94
2019-02-08T14:18:16.843Z,98093.63
2019-02-08T14:21:04.573Z,98087.41
2019-02-08T14:23:51.687Z,98081.62
2019-02-08T14:26:38.744Z,98075.14
2019-02-08T14:29:26.330Z,98062.35
2019-02-08T14:32:13.961Z,98066.30
2019-02-08T14:35:01.287Z,98070.65
2019-02-08T14:37:48.745Z,98060.34
2019-02-08T14:40:36.542Z,98050.35
2019-02-08T14:43:23.658Z,98049.50
2019-02-08T14:46:11.491Z,98035.97
2019-02-08T14:48:59.956Z,98033.83
2019-02-08T14:51:47.565Z,98030.73
2019-02-08T14:54:34.992Z,98031.36
2019-02-08T14:57:22.612Z,98030.66
2019-02-08T15:00:13.119Z,98027.50
2019-02-08T15:03:00.439Z,98028.71
2019-02-08T15:05:48.847Z,98024.31
2019-02-08T15:08:35.800Z,98011.16
2019-02-08T15:11:23.447Z,98010.53
2019-02-08T15:14:11.402Z,98003.87
2019-02-08T15:16:58.787Z,98008.59
2019-02-08T15:19:46.212Z,98001.16
2019-02-08T15:22:33.745Z,97999.99
2019-02-08T15:25:22.845Z,98003.48
2019-02-08T15:28:10.224Z,98003.57
2019-02-08T15:30:57.749Z,97992.20
2019-02-08T15:33:45.179Z,97989.96
2019-02-08T15:36:34.239Z,97995.84
2019-02-08T15:39:20.844Z,97987.34
2019-02-08T15:42:08.267Z,97989.09
2019-02-08T15:44:55.680Z,97985.40
2019-02-08T15:47:43.221Z,97981.23
2019-02-08T15:50:30.846Z,97985.95
2019-02-08T15:53:18.475Z,97989.17
2019-02-08T15:56:11.741Z,97982.36
2019-02-08T15:58:58.962Z,97981.98
2019-02-08T16:01:46.079Z,97984.25
2019-02-08T16:04:33.495Z,97968.78
2019-02-08T16:07:20.922Z,97961.88
2019-02-08T16:10:10.320Z,97955.80
2019-02-08T16:12:57.817Z,97962.59
2019-02-08T16:15:45.240Z,97960.38
2019-02-08T16:18:32.605Z,97966.11
2019-02-08T16:21:20.443Z,97968.57
2019-02-08T16:24:08.124Z,97959.52
2019-02-08T16:26:55.153Z,97959.11
2019-02-08T16:29:42.564Z,97959.25
2019-02-08T16:32:30.501Z,97951.53
2019-02-08T16:35:19.942Z,97948.23
2019-02-08T16:38:08.114Z,97948.08
2019-02-08T16:40:55.745Z,97936.30
2019-02-08T16:43:43.578Z,97939.25
2019-02-08T16:46:31.310Z,97933.61
2019-02-08T16:49:18.943Z,97921.42
2019-02-08T16:52:06.567Z,97923.38
2019-02-08T16:54:53.785Z,97922.28
2019-02-08T16:57:47.650Z,97918.02
2019-02-08T17:00:34.879Z,97919.66
2019-02-08T17:03:22.510Z,97924.22
2019-02-08T17:06:10.251Z,97924.55
2019-02-08T17:08:57.663Z,97920.31
2019-02-08T17:11:45.089Z,97918.67
2019-02-08T17:14:33.192Z,97920.11
2019-02-08T17:17:20.960Z,97918.33
2019-02-08T17:20:11.359Z,97912.06
2019-02-08T17:22:58.997Z,97914.67
2019-02-08T17:25:46.625Z,97906.84
2019-02-08T17:28:34.108Z,97900.00
2019-02-08T17:31:21.361Z,97901.47
2019-02-08T17:34:08.679Z,97895.38
2019-02-08T17:36:56.312Z,97898.47
2019-02-08T17:39:43.707Z,97893.77
2019-02-08T17:42:31.462Z,97878.06
2019-02-08T17:45:20.944Z,97887.19
2019-02-08T17:48:10.956Z,97879.05
2019-02-08T17:50:58.242Z,97878.50
2019-02-08T17:53:45.767Z,97869.98
2019-02-08T17:56:34.424Z,97872.88
2019-02-08T17:59:21.745Z,97867.34
2019-02-08T18:02:09.168Z,97855.62
2019-02-08T18:04:56.591Z,97854.80
2019-02-08T18:07:44.229Z,97862.66
2019-02-08T18:10:31.949Z,97857.64
2019-02-08T18:13:19.681Z,97851.15
2019-02-08T18:16:07.521Z,97844.20
2019-02-08T18:18:55.363Z,97841.38
2019-02-08T18:21:42.468Z,97839.33
2019-02-08T18:24:29.992Z,97840.98
2019-02-08T18:27:17.320Z,97829.32
2019-02-08T18:30:09.040Z,97826.14
2019-02-08T18:32:58.716Z,97823.44
2019-02-08T18:35:46.244Z,97821.09
2019-02-08T18:38:33.465Z,97823.03
2019-02-08T18:41:22.429Z,97818.50
2019-02-08T18:44:10.051Z,97821.80
2019-02-08T18:46:57.586Z,97822.09
2019-02-08T18:49:45.112Z,97823.02
2019-02-08T18:52:32.745Z,97823.58
2019-02-08T18:55:19.852Z,97820.69
2019-02-08T18:58:09.782Z,97819.39
2019-02-08T19:00:57.053Z,97816.15
2019-02-08T19:03:44.376Z,97808.30
2019-02-08T19:06:31.955Z,97802.39
2019-02-08T19:09:19.428Z,97807.33
2019-02-08T19:12:06.751Z,97805.69
2019-02-08T19:14:53.971Z,97791.98
2019-02-08T19:17:41.700Z,97784.19
2019-02-08T19:20:30.055Z,97785.64
2019-02-08T19:23:17.603Z,97783.64
2019-02-08T19:26:05.410Z,97782.39
2019-02-08T19:28:52.729Z,97785.10
2019-02-08T19:31:40.157Z,97771.53
2019-02-08T19:34:29.050Z,97773.23
2019-02-08T19:37:16.848Z,97778.81
2019-02-08T19:40:07.444Z,97780.69
2019-02-08T19:42:55.383Z,97756.24
2019-02-08T19:45:42.706Z,97747.17
2019-02-08T19:48:30.457Z,97734.09
2019-02-08T19:51:17.761Z,97727.33
2019-02-08T19:54:05.291Z,97728.84
2019-02-08T19:56:52.616Z,97722.78
2019-02-08T19:59:40.347Z,97713.64
2019-02-08T20:02:27.609Z,97716.14
2019-02-08T20:05:17.988Z,97706.84
2019-02-08T20:08:06.099Z,97732.09
2019-02-08T20:10:53.634Z,97705.51
2019-02-08T20:13:41.561Z,97702.28
2019-02-08T20:16:29.186Z,97693.12
2019-02-08T20:19:16.519Z,97690.02
2019-02-08T20:22:04.482Z,97684.82
2019-02-08T20:24:53.248Z,97680.23
2019-02-08T20:27:40.826Z,97685.46
2019-02-08T20:30:30.384Z,97676.98
2019-02-08T20:33:18.089Z,97674.83
2019-02-08T20:36:05.671Z,97664.12
2019-02-08T20:38:53.427Z,97663.63
2019-02-08T20:41:41.113Z,97662.92
2019-02-08T20:44:28.951Z,97664.73
2019-02-08T20:47:16.684Z,97666.38
2019-02-08T20:50:08.333Z,97666.52
2019-02-08T20:52:56.286Z,97671.81
2019-02-08T20:55:44.301Z,97664.95
2019-02-08T20:58:38.272Z,97655.59
2019-02-08T21:01:26.562Z,97657.60
2019-02-08T21:04:14.340Z,97664.66
2019-02-08T21:07:01.815Z,97661.28
2019-02-08T21:09:49.492Z,97655.91
2019-02-08T21:12:38.364Z,97651.38
2019-02-08T21:15:26.508Z,97651.17
2019-02-08T21:18:14.192Z,97650.20
2019-02-08T21:21:01.436Z,97651.84
2019-02-08T21:23:48.963Z,97638.33
2019-02-08T21:26:38.806Z,97634.23
2019-02-08T21:29:26.538Z,97625.39
2019-02-08T21:32:14.100Z,97627.03
2019-02-08T21:35:01.643Z,97612.34
2019-02-08T21:37:49.865Z,97611.80
2019-02-08T21:40:37.608Z,97610.49
2019-02-08T21:43:25.177Z,97605.51
2019-02-08T21:46:12.658Z,97597.61
2019-02-08T21:49:00.443Z,97586.39
2019-02-08T21:51:48.554Z,97583.59
2019-02-08T21:57:32.477Z,97580.45
2019-02-08T22:00:22.522Z,97569.97
2019-02-08T22:03:10.011Z,97557.47
2019-02-08T22:06:00.165Z,97563.19
2019-02-08T22:08:47.311Z,97546.67
2019-02-08T22:11:36.305Z,97544.22
2019-02-08T22:14:23.998Z,97540.62
2019-02-08T22:17:12.453Z,97541.88
2019-02-08T22:20:00.440Z,97525.77
2019-02-08T22:22:48.012Z,97531.37
2019-02-08T22:25:36.366Z,97534.31
2019-02-08T22:28:23.679Z,97523.20
2019-02-08T22:31:10.895Z,97513.55
2019-02-08T22:33:58.232Z,97508.23
2019-02-08T22:36:45.744Z,97510.84
2019-02-08T22:39:33.067Z,97504.05
2019-02-08T22:42:20.594Z,97498.85
2019-02-08T22:45:17.095Z,97491.34
2019-02-08T22:48:05.269Z,97495.52
2019-02-08T22:50:52.797Z,97503.37
2019-02-08T22:53:40.220Z,97506.34
2019-02-08T22:56:27.337Z,97507.67
2019-02-08T22:59:21.847Z,97496.62
2019-02-08T23:02:06.008Z,97486.20
2019-02-08T23:04:53.239Z,97485.63
2019-02-08T23:07:41.847Z,97481.55
2019-02-08T23:10:29.680Z,97489.33
2019-02-08T23:13:17.412Z,97510.38
2019-02-08T23:16:05.549Z,97512.41
2019-02-08T23:18:53.183Z,97529.28
2019-02-08T23:21:40.823Z,97514.09
2019-02-08T23:24:28.643Z,97510.14
2019-02-08T23:27:16.070Z,97509.04
2019-02-08T23:30:05.132Z,97504.19
2019-02-08T23:32:52.659Z,97504.52
2019-02-08T23:35:43.025Z,97505.38
2019-02-08T23:38:29.041Z,97502.75
2019-02-08T23:41:16.474Z,97495.14
2019-02-08T23:44:03.992Z,97493.95
2019-02-08T23:46:51.417Z,97489.85
2019-02-08T23:49:38.840Z,97486.99
2019-02-08T23:52:26.263Z,97478.63
2019-02-08T23:55:27.247Z,97480.23
2019-02-08T23:58:14.529Z,97469.57
